sensor_id;sensor_type;location;lat;lon;timestamp;P1;durP1;ratioP1;P2;durP2;ratioP2
23517;SDS011;11935;50.878;4.392;2022-07-22T00:01:26;13.45;;;3.20;;
23517;SDS011;11935;50.878;4.392;2022-07-22T00:03:52;11.85;;;3.40;;
23517;SDS011;11935;50.878;4.392;2022-07-22T00:06:18;12.52;;;3.20;;
23517;SDS011;11935;50.878;4.392;2022-07-22T00:08:44;13.20;;;3.80;;
23517;SDS011;11935;50.878;4.392;2022-07-22T00:11:10;14.82;;;3.20;;
23517;SDS011;11935;50.878;4.392;2022-07-22T00:13:36;15.20;;;3.63;;
23517;SDS011;11935;50.878;4.392;2022-07-22T00:16:02;15.00;;;3.22;;
23517;SDS011;11935;50.878;4.392;2022-07-22T00:18:28;13.10;;;3.08;;
23517;SDS011;11935;50.878;4.392;2022-07-22T00:20:55;20.13;;;3.85;;
23517;SDS011;11935;50.878;4.392;2022-07-22T00:23:21;10.95;;;4.20;;
23517;SDS011;11935;50.878;4.392;2022-07-22T00:25:47;13.98;;;3.60;;
23517;SDS011;11935;50.878;4.392;2022-07-22T00:28:13;11.60;;;3.55;;
23517;SDS011;11935;50.878;4.392;2022-07-22T00:30:39;11.93;;;4.07;;
23517;SDS011;11935;50.878;4.392;2022-07-22T00:33:05;14.07;;;3.83;;
23517;SDS011;11935;50.878;4.392;2022-07-22T00:35:31;17.13;;;4.38;;
23517;SDS011;11935;50.878;4.392;2022-07-22T00:37:57;12.85;;;3.80;;
23517;SDS011;11935;50.878;4.392;2022-07-22T00:40:23;22.25;;;3.85;;
23517;SDS011;11935;50.878;4.392;2022-07-22T00:42:49;12.35;;;3.85;;
23517;SDS011;11935;50.878;4.392;2022-07-22T00:45:15;12.00;;;3.45;;
23517;SDS011;11935;50.878;4.392;2022-07-22T00:47:41;10.60;;;4.25;;
23517;SDS011;11935;50.878;4.392;2022-07-22T00:50:08;16.75;;;4.57;;
23517;SDS011;11935;50.878;4.392;2022-07-22T00:52:34;14.38;;;4.93;;
23517;SDS011;11935;50.878;4.392;2022-07-22T00:55:00;10.98;;;4.30;;
23517;SDS011;11935;50.878;4.392;2022-07-22T00:57:27;13.25;;;4.40;;
23517;SDS011;11935;50.878;4.392;2022-07-22T00:59:53;18.42;;;4.00;;
23517;SDS011;11935;50.878;4.392;2022-07-22T01:02:19;13.60;;;4.43;;
23517;SDS011;11935;50.878;4.392;2022-07-22T01:04:45;20.50;;;5.28;;
23517;SDS011;11935;50.878;4.392;2022-07-22T01:07:11;14.68;;;4.57;;
23517;SDS011;11935;50.878;4.392;2022-07-22T01:09:37;15.60;;;4.57;;
23517;SDS011;11935;50.878;4.392;2022-07-22T01:12:07;12.68;;;4.28;;
23517;SDS011;11935;50.878;4.392;2022-07-22T01:14:33;20.17;;;4.43;;
23517;SDS011;11935;50.878;4.392;2022-07-22T01:16:59;15.82;;;4.18;;
23517;SDS011;11935;50.878;4.392;2022-07-22T01:19:25;14.82;;;5.28;;
23517;SDS011;11935;50.878;4.392;2022-07-22T01:21:51;14.75;;;4.47;;
23517;SDS011;11935;50.878;4.392;2022-07-22T01:24:17;16.33;;;4.40;;
23517;SDS011;11935;50.878;4.392;2022-07-22T01:26:43;12.52;;;5.03;;
23517;SDS011;11935;50.878;4.392;2022-07-22T01:29:10;16.70;;;5.00;;
23517;SDS011;11935;50.878;4.392;2022-07-22T01:31:36;15.40;;;4.70;;
23517;SDS011;11935;50.878;4.392;2022-07-22T01:34:02;13.73;;;4.55;;
23517;SDS011;11935;50.878;4.392;2022-07-22T01:36:28;11.75;;;4.47;;
23517;SDS011;11935;50.878;4.392;2022-07-22T01:38:54;13.52;;;4.57;;
23517;SDS011;11935;50.878;4.392;2022-07-22T01:41:20;15.90;;;5.35;;
23517;SDS011;11935;50.878;4.392;2022-07-22T01:43:47;19.90;;;5.18;;
23517;SDS011;11935;50.878;4.392;2022-07-22T01:46:13;16.35;;;4.82;;
23517;SDS011;11935;50.878;4.392;2022-07-22T01:48:39;17.33;;;4.57;;
23517;SDS011;11935;50.878;4.392;2022-07-22T01:51:05;19.20;;;4.55;;
23517;SDS011;11935;50.878;4.392;2022-07-22T01:53:32;17.80;;;5.30;;
23517;SDS011;11935;50.878;4.392;2022-07-22T01:55:58;14.57;;;4.53;;
23517;SDS011;11935;50.878;4.392;2022-07-22T01:58:24;20.02;;;4.65;;
23517;SDS011;11935;50.878;4.392;2022-07-22T02:00:50;13.38;;;4.47;;
23517;SDS011;11935;50.878;4.392;2022-07-22T02:03:16;12.50;;;4.32;;
23517;SDS011;11935;50.878;4.392;2022-07-22T02:05:42;11.38;;;5.03;;
23517;SDS011;11935;50.878;4.392;2022-07-22T02:08:09;16.55;;;5.22;;
23517;SDS011;11935;50.878;4.392;2022-07-22T02:10:35;16.65;;;5.00;;
23517;SDS011;11935;50.878;4.392;2022-07-22T02:13:02;17.75;;;5.28;;
23517;SDS011;11935;50.878;4.392;2022-07-22T02:15:28;19.45;;;5.15;;
23517;SDS011;11935;50.878;4.392;2022-07-22T02:17:55;16.75;;;5.05;;
23517;SDS011;11935;50.878;4.392;2022-07-22T02:20:21;20.55;;;5.40;;
23517;SDS011;11935;50.878;4.392;2022-07-22T02:22:47;12.65;;;5.28;;
23517;SDS011;11935;50.878;4.392;2022-07-22T02:25:13;17.42;;;5.25;;
23517;SDS011;11935;50.878;4.392;2022-07-22T02:27:39;17.20;;;6.00;;
23517;SDS011;11935;50.878;4.392;2022-07-22T02:30:06;13.85;;;6.50;;
23517;SDS011;11935;50.878;4.392;2022-07-22T02:32:33;19.90;;;6.05;;
23517;SDS011;11935;50.878;4.392;2022-07-22T02:34:59;12.82;;;5.90;;
23517;SDS011;11935;50.878;4.392;2022-07-22T02:37:25;17.77;;;6.32;;
23517;SDS011;11935;50.878;4.392;2022-07-22T02:39:51;15.57;;;6.22;;
23517;SDS011;11935;50.878;4.392;2022-07-22T02:42:17;17.90;;;6.40;;
23517;SDS011;11935;50.878;4.392;2022-07-22T02:44:43;22.70;;;6.45;;
23517;SDS011;11935;50.878;4.392;2022-07-22T02:47:09;17.67;;;6.40;;
23517;SDS011;11935;50.878;4.392;2022-07-22T02:49:35;15.82;;;5.63;;
23517;SDS011;11935;50.878;4.392;2022-07-22T02:52:01;19.25;;;5.97;;
23517;SDS011;11935;50.878;4.392;2022-07-22T02:54:27;16.30;;;5.82;;
23517;SDS011;11935;50.878;4.392;2022-07-22T02:56:53;15.63;;;5.53;;
23517;SDS011;11935;50.878;4.392;2022-07-22T02:59:20;17.55;;;5.60;;
23517;SDS011;11935;50.878;4.392;2022-07-22T03:01:46;16.05;;;5.57;;
23517;SDS011;11935;50.878;4.392;2022-07-22T03:04:12;13.00;;;5.10;;
23517;SDS011;11935;50.878;4.392;2022-07-22T03:06:38;14.80;;;5.38;;
23517;SDS011;11935;50.878;4.392;2022-07-22T03:09:04;21.00;;;4.70;;
23517;SDS011;11935;50.878;4.392;2022-07-22T03:11:30;18.63;;;5.03;;
23517;SDS011;11935;50.878;4.392;2022-07-22T03:13:56;12.18;;;4.72;;
23517;SDS011;11935;50.878;4.392;2022-07-22T03:16:22;13.20;;;4.45;;
23517;SDS011;11935;50.878;4.392;2022-07-22T03:18:48;21.05;;;4.53;;
23517;SDS011;11935;50.878;4.392;2022-07-22T03:21:14;11.70;;;3.78;;
23517;SDS011;11935;50.878;4.392;2022-07-22T03:23:40;13.98;;;4.43;;
23517;SDS011;11935;50.878;4.392;2022-07-22T03:26:06;12.07;;;4.22;;
23517;SDS011;11935;50.878;4.392;2022-07-22T03:28:32;19.42;;;5.05;;
23517;SDS011;11935;50.878;4.392;2022-07-22T03:30:58;15.32;;;4.43;;
23517;SDS011;11935;50.878;4.392;2022-07-22T03:33:24;10.02;;;4.13;;
23517;SDS011;11935;50.878;4.392;2022-07-22T03:35:50;17.50;;;4.28;;
23517;SDS011;11935;50.878;4.392;2022-07-22T03:38:16;10.80;;;3.90;;
23517;SDS011;11935;50.878;4.392;2022-07-22T03:40:42;13.75;;;4.38;;
23517;SDS011;11935;50.878;4.392;2022-07-22T03:43:08;16.38;;;3.83;;
23517;SDS011;11935;50.878;4.392;2022-07-22T03:45:34;13.48;;;4.50;;
23517;SDS011;11935;50.878;4.392;2022-07-22T03:48:00;9.75;;;4.28;;
23517;SDS011;11935;50.878;4.392;2022-07-22T03:50:26;13.52;;;3.88;;
23517;SDS011;11935;50.878;4.392;2022-07-22T03:52:52;13.88;;;4.32;;
23517;SDS011;11935;50.878;4.392;2022-07-22T03:55:18;11.82;;;3.60;;
23517;SDS011;11935;50.878;4.392;2022-07-22T03:57:44;13.75;;;3.95;;
23517;SDS011;11935;50.878;4.392;2022-07-22T04:00:11;14.55;;;3.95;;
23517;SDS011;11935;50.878;4.392;2022-07-22T04:02:37;12.68;;;4.07;;
23517;SDS011;11935;50.878;4.392;2022-07-22T04:05:03;17.02;;;4.13;;
23517;SDS011;11935;50.878;4.392;2022-07-22T04:07:29;10.63;;;4.28;;
23517;SDS011;11935;50.878;4.392;2022-07-22T04:09:55;17.83;;;4.47;;
23517;SDS011;11935;50.878;4.392;2022-07-22T04:12:31;11.40;;;4.10;;
23517;SDS011;11935;50.878;4.392;2022-07-22T04:14:57;12.93;;;4.45;;
23517;SDS011;11935;50.878;4.392;2022-07-22T04:17:23;14.88;;;4.38;;
23517;SDS011;11935;50.878;4.392;2022-07-22T04:19:49;13.65;;;4.72;;
23517;SDS011;11935;50.878;4.392;2022-07-22T04:22:15;10.93;;;4.28;;
23517;SDS011;11935;50.878;4.392;2022-07-22T04:24:41;14.90;;;5.10;;
23517;SDS011;11935;50.878;4.392;2022-07-22T04:27:17;10.48;;;4.38;;
23517;SDS011;11935;50.878;4.392;2022-07-22T04:29:43;19.88;;;4.47;;
23517;SDS011;11935;50.878;4.392;2022-07-22T04:32:09;12.05;;;4.05;;
23517;SDS011;11935;50.878;4.392;2022-07-22T04:34:35;13.57;;;4.53;;
23517;SDS011;11935;50.878;4.392;2022-07-22T04:37:01;15.50;;;4.78;;
23517;SDS011;11935;50.878;4.392;2022-07-22T04:39:27;13.18;;;4.57;;
23517;SDS011;11935;50.878;4.392;2022-07-22T04:41:53;13.32;;;4.75;;
23517;SDS011;11935;50.878;4.392;2022-07-22T04:44:19;14.50;;;5.40;;
23517;SDS011;11935;50.878;4.392;2022-07-22T04:46:45;12.05;;;4.25;;
23517;SDS011;11935;50.878;4.392;2022-07-22T04:49:11;12.52;;;4.68;;
23517;SDS011;11935;50.878;4.392;2022-07-22T04:51:37;13.27;;;4.90;;
23517;SDS011;11935;50.878;4.392;2022-07-22T04:54:03;10.80;;;4.68;;
23517;SDS011;11935;50.878;4.392;2022-07-22T04:56:29;12.60;;;4.72;;
23517;SDS011;11935;50.878;4.392;2022-07-22T04:58:55;21.40;;;4.70;;
23517;SDS011;11935;50.878;4.392;2022-07-22T05:01:21;20.23;;;5.43;;
23517;SDS011;11935;50.878;4.392;2022-07-22T05:03:47;11.43;;;4.40;;
23517;SDS011;11935;50.878;4.392;2022-07-22T05:06:14;13.45;;;5.60;;
23517;SDS011;11935;50.878;4.392;2022-07-22T05:08:40;12.15;;;5.18;;
23517;SDS011;11935;50.878;4.392;2022-07-22T05:11:06;15.30;;;4.95;;
23517;SDS011;11935;50.878;4.392;2022-07-22T05:13:32;11.73;;;5.18;;
23517;SDS011;11935;50.878;4.392;2022-07-22T05:16:02;11.82;;;4.97;;
23517;SDS011;11935;50.878;4.392;2022-07-22T05:18:29;13.27;;;5.38;;
23517;SDS011;11935;50.878;4.392;2022-07-22T05:20:55;12.10;;;5.10;;
23517;SDS011;11935;50.878;4.392;2022-07-22T05:23:21;16.05;;;5.43;;
23517;SDS011;11935;50.878;4.392;2022-07-22T05:25:47;14.00;;;5.10;;
23517;SDS011;11935;50.878;4.392;2022-07-22T05:28:13;14.48;;;4.90;;
23517;SDS011;11935;50.878;4.392;2022-07-22T05:30:39;10.07;;;5.20;;
23517;SDS011;11935;50.878;4.392;2022-07-22T05:33:05;14.13;;;5.32;;
23517;SDS011;11935;50.878;4.392;2022-07-22T05:35:31;17.95;;;5.97;;
23517;SDS011;11935;50.878;4.392;2022-07-22T05:37:57;15.32;;;6.07;;
23517;SDS011;11935;50.878;4.392;2022-07-22T05:40:23;11.75;;;6.13;;
23517;SDS011;11935;50.878;4.392;2022-07-22T05:42:49;12.65;;;5.78;;
23517;SDS011;11935;50.878;4.392;2022-07-22T05:45:15;12.90;;;5.43;;
23517;SDS011;11935;50.878;4.392;2022-07-22T05:47:41;16.83;;;6.10;;
23517;SDS011;11935;50.878;4.392;2022-07-22T05:50:07;13.68;;;5.93;;
23517;SDS011;11935;50.878;4.392;2022-07-22T05:52:35;15.32;;;5.72;;
23517;SDS011;11935;50.878;4.392;2022-07-22T05:57:27;15.75;;;6.68;;
23517;SDS011;11935;50.878;4.392;2022-07-22T05:59:52;16.00;;;6.97;;
23517;SDS011;11935;50.878;4.392;2022-07-22T06:02:19;21.40;;;7.50;;
23517;SDS011;11935;50.878;4.392;2022-07-22T06:04:45;18.58;;;8.35;;
23517;SDS011;11935;50.878;4.392;2022-07-22T06:07:11;16.35;;;7.88;;
23517;SDS011;11935;50.878;4.392;2022-07-22T06:09:37;16.23;;;7.90;;
23517;SDS011;11935;50.878;4.392;2022-07-22T06:12:03;21.33;;;8.07;;
23517;SDS011;11935;50.878;4.392;2022-07-22T06:14:29;20.95;;;8.48;;
23517;SDS011;11935;50.878;4.392;2022-07-22T06:16:55;19.08;;;8.45;;
23517;SDS011;11935;50.878;4.392;2022-07-22T06:19:21;16.77;;;8.65;;
23517;SDS011;11935;50.878;4.392;2022-07-22T06:21:49;19.33;;;8.82;;
23517;SDS011;11935;50.878;4.392;2022-07-22T06:24:15;19.73;;;8.05;;
23517;SDS011;11935;50.878;4.392;2022-07-22T06:26:41;16.02;;;8.02;;
23517;SDS011;11935;50.878;4.392;2022-07-22T06:29:07;19.05;;;7.45;;
23517;SDS011;11935;50.878;4.392;2022-07-22T06:31:33;16.48;;;8.60;;
23517;SDS011;11935;50.878;4.392;2022-07-22T06:33:59;16.90;;;8.15;;
23517;SDS011;11935;50.878;4.392;2022-07-22T06:36:30;19.63;;;6.82;;
23517;SDS011;11935;50.878;4.392;2022-07-22T06:38:57;17.05;;;6.43;;
23517;SDS011;11935;50.878;4.392;2022-07-22T06:41:24;11.38;;;6.25;;
23517;SDS011;11935;50.878;4.392;2022-07-22T06:43:50;14.17;;;5.63;;
23517;SDS011;11935;50.878;4.392;2022-07-22T06:46:16;18.23;;;9.80;;
23517;SDS011;11935;50.878;4.392;2022-07-22T06:48:42;17.60;;;6.20;;
23517;SDS011;11935;50.878;4.392;2022-07-22T06:51:08;12.32;;;5.80;;
23517;SDS011;11935;50.878;4.392;2022-07-22T06:53:35;13.45;;;6.28;;
23517;SDS011;11935;50.878;4.392;2022-07-22T06:56:01;13.77;;;6.00;;
23517;SDS011;11935;50.878;4.392;2022-07-22T06:58:27;10.00;;;5.55;;
23517;SDS011;11935;50.878;4.392;2022-07-22T07:00:53;13.07;;;4.97;;
23517;SDS011;11935;50.878;4.392;2022-07-22T07:03:22;12.00;;;4.75;;
23517;SDS011;11935;50.878;4.392;2022-07-22T07:05:50;12.90;;;5.65;;
23517;SDS011;11935;50.878;4.392;2022-07-22T07:08:16;10.43;;;4.85;;
23517;SDS011;11935;50.878;4.392;2022-07-22T07:10:42;12.98;;;4.75;;
23517;SDS011;11935;50.878;4.392;2022-07-22T07:13:08;9.43;;;3.70;;
23517;SDS011;11935;50.878;4.392;2022-07-22T07:15:34;8.85;;;3.28;;
23517;SDS011;11935;50.878;4.392;2022-07-22T07:18:03;9.38;;;3.28;;
23517;SDS011;11935;50.878;4.392;2022-07-22T07:20:29;9.02;;;2.83;;
23517;SDS011;11935;50.878;4.392;2022-07-22T07:22:55;7.88;;;3.10;;
23517;SDS011;11935;50.878;4.392;2022-07-22T07:25:21;6.57;;;2.95;;
23517;SDS011;11935;50.878;4.392;2022-07-22T07:27:47;11.48;;;3.05;;
23517;SDS011;11935;50.878;4.392;2022-07-22T07:30:13;8.75;;;3.15;;
23517;SDS011;11935;50.878;4.392;2022-07-22T07:32:39;9.93;;;3.22;;
23517;SDS011;11935;50.878;4.392;2022-07-22T07:35:06;6.75;;;3.13;;
23517;SDS011;11935;50.878;4.392;2022-07-22T07:37:32;9.35;;;3.65;;
23517;SDS011;11935;50.878;4.392;2022-07-22T07:39:58;7.57;;;2.88;;
23517;SDS011;11935;50.878;4.392;2022-07-22T07:42:25;8.25;;;3.20;;
23517;SDS011;11935;50.878;4.392;2022-07-22T07:44:51;9.95;;;3.03;;
23517;SDS011;11935;50.878;4.392;2022-07-22T07:47:17;6.22;;;3.33;;
23517;SDS011;11935;50.878;4.392;2022-07-22T07:49:45;10.00;;;3.58;;
23517;SDS011;11935;50.878;4.392;2022-07-22T07:52:12;7.63;;;3.65;;
23517;SDS011;11935;50.878;4.392;2022-07-22T07:54:41;7.40;;;4.13;;
23517;SDS011;11935;50.878;4.392;2022-07-22T07:57:08;9.80;;;4.10;;
23517;SDS011;11935;50.878;4.392;2022-07-22T07:59:35;10.40;;;4.00;;
23517;SDS011;11935;50.878;4.392;2022-07-22T08:02:01;10.07;;;3.45;;
23517;SDS011;11935;50.878;4.392;2022-07-22T08:04:27;7.90;;;3.53;;
23517;SDS011;11935;50.878;4.392;2022-07-22T08:06:53;7.28;;;3.67;;
23517;SDS011;11935;50.878;4.392;2022-07-22T08:09:19;8.60;;;3.70;;
23517;SDS011;11935;50.878;4.392;2022-07-22T08:11:45;7.80;;;3.78;;
23517;SDS011;11935;50.878;4.392;2022-07-22T08:14:11;7.47;;;4.40;;
23517;SDS011;11935;50.878;4.392;2022-07-22T08:16:37;13.32;;;4.38;;
23517;SDS011;11935;50.878;4.392;2022-07-22T08:19:03;9.48;;;3.60;;
23517;SDS011;11935;50.878;4.392;2022-07-22T08:21:29;10.15;;;4.10;;
23517;SDS011;11935;50.878;4.392;2022-07-22T08:23:55;9.43;;;5.30;;
23517;SDS011;11935;50.878;4.392;2022-07-22T08:26:22;6.22;;;3.38;;
23517;SDS011;11935;50.878;4.392;2022-07-22T08:28:48;7.93;;;3.40;;
23517;SDS011;11935;50.878;4.392;2022-07-22T08:31:14;7.20;;;3.60;;
23517;SDS011;11935;50.878;4.392;2022-07-22T08:33:40;6.93;;;3.47;;
23517;SDS011;11935;50.878;4.392;2022-07-22T08:36:06;9.70;;;3.47;;
23517;SDS011;11935;50.878;4.392;2022-07-22T08:38:32;6.57;;;3.80;;
23517;SDS011;11935;50.878;4.392;2022-07-22T08:40:58;7.68;;;3.72;;
23517;SDS011;11935;50.878;4.392;2022-07-22T08:43:26;8.47;;;3.40;;
23517;SDS011;11935;50.878;4.392;2022-07-22T08:45:52;8.65;;;4.20;;
23517;SDS011;11935;50.878;4.392;2022-07-22T08:48:18;5.90;;;3.50;;
23517;SDS011;11935;50.878;4.392;2022-07-22T08:50:44;11.00;;;3.60;;
23517;SDS011;11935;50.878;4.392;2022-07-22T08:53:11;8.85;;;3.15;;
23517;SDS011;11935;50.878;4.392;2022-07-22T08:55:46;9.82;;;3.60;;
23517;SDS011;11935;50.878;4.392;2022-07-22T08:58:13;7.35;;;3.45;;
23517;SDS011;11935;50.878;4.392;2022-07-22T09:00:39;9.32;;;3.97;;
23517;SDS011;11935;50.878;4.392;2022-07-22T09:03:24;7.85;;;3.50;;
23517;SDS011;11935;50.878;4.392;2022-07-22T09:05:53;9.52;;;3.10;;
23517;SDS011;11935;50.878;4.392;2022-07-22T09:08:19;6.45;;;2.80;;
23517;SDS011;11935;50.878;4.392;2022-07-22T09:10:47;4.07;;;2.95;;
23517;SDS011;11935;50.878;4.392;2022-07-22T09:13:14;9.88;;;2.30;;
23517;SDS011;11935;50.878;4.392;2022-07-22T09:15:49;6.35;;;2.08;;
23517;SDS011;11935;50.878;4.392;2022-07-22T09:18:15;10.85;;;2.95;;
23517;SDS011;11935;50.878;4.392;2022-07-22T09:20:41;5.80;;;3.05;;
23517;SDS011;11935;50.878;4.392;2022-07-22T09:23:16;7.70;;;2.38;;
23517;SDS011;11935;50.878;4.392;2022-07-22T09:25:43;4.10;;;2.70;;
23517;SDS011;11935;50.878;4.392;2022-07-22T09:28:11;9.07;;;2.70;;
23517;SDS011;11935;50.878;4.392;2022-07-22T09:30:47;6.57;;;2.95;;
23517;SDS011;11935;50.878;4.392;2022-07-22T09:33:14;9.98;;;2.97;;
23517;SDS011;11935;50.878;4.392;2022-07-22T09:35:40;5.13;;;2.50;;
23517;SDS011;11935;50.878;4.392;2022-07-22T09:38:07;5.28;;;2.70;;
23517;SDS011;11935;50.878;4.392;2022-07-22T09:40:34;8.77;;;2.70;;
23517;SDS011;11935;50.878;4.392;2022-07-22T09:43:05;5.87;;;2.70;;
23517;SDS011;11935;50.878;4.392;2022-07-22T09:45:32;6.97;;;2.58;;
23517;SDS011;11935;50.878;4.392;2022-07-22T09:47:59;8.70;;;3.45;;
23517;SDS011;11935;50.878;4.392;2022-07-22T09:50:27;6.03;;;3.42;;
23517;SDS011;11935;50.878;4.392;2022-07-22T09:52:55;6.97;;;2.83;;
23517;SDS011;11935;50.878;4.392;2022-07-22T09:55:22;9.57;;;2.50;;
23517;SDS011;11935;50.878;4.392;2022-07-22T09:57:49;6.60;;;2.50;;
23517;SDS011;11935;50.878;4.392;2022-07-22T10:00:17;8.23;;;2.65;;
23517;SDS011;11935;50.878;4.392;2022-07-22T10:02:48;6.72;;;2.47;;
23517;SDS011;11935;50.878;4.392;2022-07-22T10:05:15;5.70;;;2.40;;
23517;SDS011;11935;50.878;4.392;2022-07-22T10:07:44;5.93;;;3.25;;
23517;SDS011;11935;50.878;4.392;2022-07-22T10:10:12;8.73;;;4.40;;
23517;SDS011;11935;50.878;4.392;2022-07-22T10:12:39;4.63;;;2.63;;
23517;SDS011;11935;50.878;4.392;2022-07-22T10:15:06;5.13;;;2.78;;
23517;SDS011;11935;50.878;4.392;2022-07-22T10:17:33;6.32;;;2.70;;
23517;SDS011;11935;50.878;4.392;2022-07-22T10:19:59;4.10;;;2.65;;
23517;SDS011;11935;50.878;4.392;2022-07-22T10:25:07;4.65;;;2.42;;
23517;SDS011;11935;50.878;4.392;2022-07-22T10:27:46;5.75;;;2.67;;
23517;SDS011;11935;50.878;4.392;2022-07-22T10:30:28;6.10;;;2.40;;
23517;SDS011;11935;50.878;4.392;2022-07-22T10:33:02;6.13;;;3.30;;
23517;SDS011;11935;50.878;4.392;2022-07-22T10:35:31;7.20;;;3.40;;
23517;SDS011;11935;50.878;4.392;2022-07-22T10:37:59;7.35;;;3.00;;
23517;SDS011;11935;50.878;4.392;2022-07-22T10:40:29;5.53;;;2.72;;
23517;SDS011;11935;50.878;4.392;2022-07-22T10:43:16;6.35;;;3.03;;
23517;SDS011;11935;50.878;4.392;2022-07-22T10:48:25;6.15;;;2.83;;
23517;SDS011;11935;50.878;4.392;2022-07-22T10:51:17;4.85;;;2.25;;
23517;SDS011;11935;50.878;4.392;2022-07-22T10:53:56;7.65;;;2.55;;
23517;SDS011;11935;50.878;4.392;2022-07-22T10:56:28;7.55;;;2.80;;
23517;SDS011;11935;50.878;4.392;2022-07-22T10:59:09;7.63;;;2.88;;
23517;SDS011;11935;50.878;4.392;2022-07-22T11:01:36;4.43;;;2.70;;
23517;SDS011;11935;50.878;4.392;2022-07-22T11:04:17;4.32;;;2.92;;
23517;SDS011;11935;50.878;4.392;2022-07-22T11:06:44;7.13;;;3.00;;
23517;SDS011;11935;50.878;4.392;2022-07-22T11:09:11;6.78;;;2.47;;
23517;SDS011;11935;50.878;4.392;2022-07-22T11:11:39;6.60;;;3.22;;
23517;SDS011;11935;50.878;4.392;2022-07-22T11:17:08;6.40;;;3.17;;
23517;SDS011;11935;50.878;4.392;2022-07-22T11:19:35;10.15;;;3.35;;
23517;SDS011;11935;50.878;4.392;2022-07-22T11:24:31;5.72;;;3.20;;
23517;SDS011;11935;50.878;4.392;2022-07-22T11:26:58;5.70;;;2.97;;
23517;SDS011;11935;50.878;4.392;2022-07-22T11:29:28;4.72;;;2.83;;
23517;SDS011;11935;50.878;4.392;2022-07-22T11:31:55;6.25;;;3.28;;
23517;SDS011;11935;50.878;4.392;2022-07-22T11:34:21;6.93;;;4.28;;
23517;SDS011;11935;50.878;4.392;2022-07-22T11:36:48;8.10;;;4.07;;
23517;SDS011;11935;50.878;4.392;2022-07-22T11:39:18;5.47;;;2.80;;
23517;SDS011;11935;50.878;4.392;2022-07-22T11:41:44;6.80;;;2.90;;
23517;SDS011;11935;50.878;4.392;2022-07-22T11:44:10;6.18;;;3.15;;
23517;SDS011;11935;50.878;4.392;2022-07-22T11:46:40;4.72;;;3.13;;
23517;SDS011;11935;50.878;4.392;2022-07-22T11:49:07;3.95;;;2.90;;
23517;SDS011;11935;50.878;4.392;2022-07-22T11:51:34;7.22;;;3.65;;
23517;SDS011;11935;50.878;4.392;2022-07-22T11:54:00;7.53;;;3.10;;
23517;SDS011;11935;50.878;4.392;2022-07-22T11:56:26;6.40;;;3.50;;
23517;SDS011;11935;50.878;4.392;2022-07-22T11:58:53;5.90;;;3.28;;
23517;SDS011;11935;50.878;4.392;2022-07-22T12:01:20;5.30;;;3.17;;
23517;SDS011;11935;50.878;4.392;2022-07-22T12:03:47;6.22;;;3.78;;
23517;SDS011;11935;50.878;4.392;2022-07-22T12:06:15;7.85;;;3.78;;
23517;SDS011;11935;50.878;4.392;2022-07-22T12:08:42;6.15;;;3.67;;
23517;SDS011;11935;50.878;4.392;2022-07-22T12:11:09;6.70;;;3.53;;
23517;SDS011;11935;50.878;4.392;2022-07-22T12:13:35;10.20;;;3.20;;
23517;SDS011;11935;50.878;4.392;2022-07-22T12:16:16;8.38;;;3.38;;
23517;SDS011;11935;50.878;4.392;2022-07-22T12:18:42;6.47;;;3.17;;
23517;SDS011;11935;50.878;4.392;2022-07-22T12:21:08;7.28;;;3.30;;
23517;SDS011;11935;50.878;4.392;2022-07-22T12:23:34;6.43;;;3.42;;
23517;SDS011;11935;50.878;4.392;2022-07-22T12:26:01;5.93;;;3.20;;
23517;SDS011;11935;50.878;4.392;2022-07-22T12:28:27;6.90;;;3.00;;
23517;SDS011;11935;50.878;4.392;2022-07-22T12:30:54;5.97;;;3.67;;
23517;SDS011;11935;50.878;4.392;2022-07-22T12:33:21;3.95;;;3.17;;
23517;SDS011;11935;50.878;4.392;2022-07-22T12:35:58;5.75;;;3.20;;
23517;SDS011;11935;50.878;4.392;2022-07-22T12:38:24;7.72;;;2.90;;
23517;SDS011;11935;50.878;4.392;2022-07-22T12:40:50;6.82;;;3.17;;
23517;SDS011;11935;50.878;4.392;2022-07-22T12:43:16;8.68;;;3.50;;
23517;SDS011;11935;50.878;4.392;2022-07-22T12:45:42;7.60;;;3.15;;
23517;SDS011;11935;50.878;4.392;2022-07-22T12:48:09;9.25;;;3.47;;
23517;SDS011;11935;50.878;4.392;2022-07-22T12:50:39;8.98;;;3.47;;
23517;SDS011;11935;50.878;4.392;2022-07-22T12:53:09;7.35;;;3.08;;
23517;SDS011;11935;50.878;4.392;2022-07-22T12:55:37;5.72;;;3.45;;
23517;SDS011;11935;50.878;4.392;2022-07-22T12:58:03;6.88;;;3.25;;
23517;SDS011;11935;50.878;4.392;2022-07-22T13:00:34;6.95;;;3.80;;
23517;SDS011;11935;50.878;4.392;2022-07-22T13:03:05;6.53;;;3.33;;
23517;SDS011;11935;50.878;4.392;2022-07-22T13:05:31;5.70;;;3.15;;
23517;SDS011;11935;50.878;4.392;2022-07-22T13:07:57;8.13;;;2.90;;
23517;SDS011;11935;50.878;4.392;2022-07-22T13:10:24;7.75;;;3.20;;
23517;SDS011;11935;50.878;4.392;2022-07-22T13:12:51;6.32;;;3.80;;
23517;SDS011;11935;50.878;4.392;2022-07-22T13:15:17;4.35;;;2.78;;
23517;SDS011;11935;50.878;4.392;2022-07-22T13:17:44;8.55;;;3.03;;
23517;SDS011;11935;50.878;4.392;2022-07-22T13:20:10;7.47;;;3.20;;
23517;SDS011;11935;50.878;4.392;2022-07-22T13:25:04;5.75;;;3.15;;
23517;SDS011;11935;50.878;4.392;2022-07-22T13:27:30;7.22;;;3.22;;
23517;SDS011;11935;50.878;4.392;2022-07-22T13:29:56;8.65;;;3.33;;
23517;SDS011;11935;50.878;4.392;2022-07-22T13:32:22;5.72;;;3.08;;
23517;SDS011;11935;50.878;4.392;2022-07-22T13:34:49;16.70;;;3.17;;
23517;SDS011;11935;50.878;4.392;2022-07-22T13:37:15;5.93;;;2.72;;
23517;SDS011;11935;50.878;4.392;2022-07-22T13:39:41;9.63;;;3.28;;
23517;SDS011;11935;50.878;4.392;2022-07-22T13:42:10;6.57;;;3.17;;
23517;SDS011;11935;50.878;4.392;2022-07-22T13:44:36;7.70;;;3.10;;
23517;SDS011;11935;50.878;4.392;2022-07-22T13:47:03;5.20;;;2.95;;
23517;SDS011;11935;50.878;4.392;2022-07-22T13:49:29;7.88;;;3.50;;
23517;SDS011;11935;50.878;4.392;2022-07-22T13:51:55;3.90;;;2.80;;
23517;SDS011;11935;50.878;4.392;2022-07-22T13:54:21;5.72;;;3.53;;
23517;SDS011;11935;50.878;4.392;2022-07-22T13:56:47;9.48;;;3.80;;
23517;SDS011;11935;50.878;4.392;2022-07-22T13:59:14;5.35;;;3.20;;
23517;SDS011;11935;50.878;4.392;2022-07-22T14:01:40;5.03;;;3.03;;
23517;SDS011;11935;50.878;4.392;2022-07-22T14:04:06;5.78;;;3.00;;
23517;SDS011;11935;50.878;4.392;2022-07-22T14:06:35;7.25;;;2.67;;
23517;SDS011;11935;50.878;4.392;2022-07-22T14:09:04;4.95;;;2.88;;
23517;SDS011;11935;50.878;4.392;2022-07-22T14:11:30;5.50;;;2.80;;
23517;SDS011;11935;50.878;4.392;2022-07-22T14:13:56;5.53;;;3.20;;
23517;SDS011;11935;50.878;4.392;2022-07-22T14:16:23;8.85;;;3.45;;
23517;SDS011;11935;50.878;4.392;2022-07-22T14:19:06;4.50;;;2.88;;
23517;SDS011;11935;50.878;4.392;2022-07-22T14:21:32;6.75;;;3.25;;
23517;SDS011;11935;50.878;4.392;2022-07-22T14:23:59;6.68;;;3.80;;
23517;SDS011;11935;50.878;4.392;2022-07-22T14:26:25;7.10;;;3.63;;
23517;SDS011;11935;50.878;4.392;2022-07-22T14:28:51;6.97;;;3.58;;
23517;SDS011;11935;50.878;4.392;2022-07-22T14:31:17;5.90;;;3.78;;
23517;SDS011;11935;50.878;4.392;2022-07-22T14:33:44;8.00;;;3.90;;
23517;SDS011;11935;50.878;4.392;2022-07-22T14:36:10;9.38;;;4.13;;
23517;SDS011;11935;50.878;4.392;2022-07-22T14:38:36;6.15;;;3.90;;
23517;SDS011;11935;50.878;4.392;2022-07-22T14:41:02;8.00;;;3.90;;
23517;SDS011;11935;50.878;4.392;2022-07-22T14:43:29;7.25;;;4.40;;
23517;SDS011;11935;50.878;4.392;2022-07-22T14:45:55;8.05;;;3.72;;
23517;SDS011;11935;50.878;4.392;2022-07-22T14:48:21;6.28;;;3.90;;
23517;SDS011;11935;50.878;4.392;2022-07-22T14:50:47;5.35;;;3.90;;
23517;SDS011;11935;50.878;4.392;2022-07-22T14:53:13;14.48;;;4.50;;
23517;SDS011;11935;50.878;4.392;2022-07-22T14:58:07;6.40;;;4.07;;